Latest Weather Observations for Mount Baw Baw

IDV60801

Issued at 4:02 pm EST Friday 28 April 2017 (issued every 30 minutes, with the page automatically refreshed every 10 minutes)

About weather observations | Map of weather stations | Latest weather observations for VIC | Other Formats
Station Details ID: 085291 Name: MOUNT BAW BAW Lat: -37.84 Lon: 146.27 Height: 1561.0 m
Data from the previous 72 hours. | See also: Recent months at Mount Baw Baw
Date/Time
EST
Temp
°C
App
Temp
°C
Dew
Point
°C
Rel
Hum
%
Delta-T
°C
Wind Press
QNH
hPa
Press
MSL
hPa
Rain since
9am
mm
Dir  Spd
km/h
Gust
km/h
Spd
kts
Gust
kts
28/04:00pm 4.5 -1.7 4.4 99 0.0 WSW 26 37 - 20 - - -
28/03:30pm 4.6 -1.2 4.5 99 0.0 WSW 24 39 - 21 - - 0.0
28/03:00pm 4.9 -0.8 4.8 99 0.0 WSW 24 35 - 19 - - 0.0
28/02:30pm 5.2 -0.5 5.1 99 0.0 WSW 24 39 - 21 - - 0.0
28/02:00pm 5.2 -0.1 5.1 99 0.0 WSW 22 33 - 18 - - 0.0
28/01:30pm 5.1 -0.6 5.0 99 0.0 WSW 24 35 - 19 - - 0.0
28/01:00pm 4.7 -0.3 4.6 99 0.0 WSW 20 28 - 15 - - 0.0
28/12:30pm 4.4 -0.7 4.3 99 0.0 WSW 20 32 - 17 - - 0.0
28/12:00pm 4.3 -0.6 4.2 99 0.0 WSW 19 30 - 16 - - 0.0
28/11:30am 4.0 -1.1 3.9 99 0.0 WSW 20 28 - 15 - - 0.0
28/11:00am 3.3 -1.8 3.2 99 0.0 WSW 19 28 - 15 - - 0.0
28/10:30am 2.7 -3.0 2.6 99 0.0 WSW 22 32 - 17 - - 0.0
28/10:00am 2.8 -2.9 2.7 99 0.0 WSW 22 30 - 16 - - 0.0
28/09:30am 2.8 -2.4 2.7 99 0.0 WSW 19 26 - 14 - - 0.0
28/09:00am 2.7 -3.0 2.6 99 0.0 WSW 22 28 - 15 - - 2.8
28/08:30am 3.0 -2.3 2.9 99 0.0 WSW 20 32 - 17 - - 2.8
28/08:00am 2.6 -3.2 2.5 99 0.0 WSW 22 35 - 19 - - 2.8
28/07:30am 2.3 -3.9 2.2 99 0.0 WSW 24 33 - 18 - - 2.8
28/07:00am 2.0 -4.2 1.9 99 0.0 WSW 24 32 - 17 - - 2.8
28/06:30am 1.9 -4.4 1.8 99 0.0 WSW 24 35 - 19 - - 2.8
28/06:00am 1.9 -4.4 1.8 99 0.0 WSW 24 33 - 18 - - 2.8
28/05:30am 1.8 -4.5 1.7 99 0.0 WSW 24 32 - 17 - - 2.8
28/05:00am 1.5 -5.2 1.4 99 0.0 WSW 26 37 - 20 - - 2.8
28/04:30am 1.4 -4.6 1.3 99 0.0 WSW 22 30 - 16 - - 2.8
28/04:00am 1.5 -4.4 1.4 99 0.0 WSW 22 33 - 18 - - 2.8
28/03:30am 1.5 -4.8 1.4 99 0.0 WSW 24 32 - 17 - - 2.8
28/03:00am 1.2 -4.8 1.1 99 0.0 WSW 22 30 - 16 - - 2.8
28/02:30am 1.2 -5.6 1.1 99 0.0 WSW 26 35 - 19 - - 2.8
28/02:00am 1.3 -5.1 1.2 99 0.0 WSW 24 30 - 16 - - 2.8
28/01:30am 1.1 -4.3 1.0 99 0.0 WSW 19 24 - 13 - - 2.8
28/01:00am 0.7 -4.0 0.6 99 0.0 WSW 15 20 - 11 - - 2.8
28/12:30am 0.5 -3.9 0.4 99 0.0 SW 13 19 - 10 - - 2.8
28/12:00am 0.3 -1.7 0.2 99 0.0 CALM 0 4 - 2 - - 2.8
 
Date/Time
EST
Temp
°C
App
Temp
°C
Dew
Point
°C
Rel
Hum
%
Delta-T
°C
Wind Press
QNH
hPa
Press
MSL
hPa
Rain since
9am
mm
Dir  Spd
km/h
Gust
km/h
Spd
kts
Gust
kts
27/11:30pm 0.3 -1.7 0.2 99 0.0 CALM 0 0 - 0 - - 2.6
27/11:00pm 0.2 -1.8 0.1 99 0.0 CALM 0 0 - 0 - - 2.6
27/10:30pm 0.0 -2.0 -0.1 99 0.0 CALM 0 0 - 0 - - 2.6
27/10:00pm 0.0 -2.0 -0.1 99 0.0 CALM 0 0 - 0 - - 2.4
27/09:30pm 0.0 -2.0 -0.1 99 0.0 CALM 0 0 - 0 - - 2.4
27/09:00pm 0.0 -2.0 -0.1 99 0.0 CALM 0 0 - 0 - - 2.4
27/08:30pm -0.1 -2.1 -0.2 99 0.0 CALM 0 0 - 0 - - 2.4
27/08:00pm -0.1 -2.1 -0.2 99 0.0 CALM 0 0 - 0 - - 2.4
27/07:30pm -0.2 -2.2 -0.3 99 0.0 CALM 0 0 - 0 - - 2.4
27/07:00pm -0.4 -2.5 -0.5 99 0.0 CALM 0 0 - 0 - - 2.4
27/06:30pm -0.3 -2.3 -0.4 99 0.0 CALM 0 0 - 0 - - 2.4
27/06:00pm -0.2 -2.2 -0.3 99 0.0 CALM 0 0 - 0 - - 2.4
27/05:30pm -0.2 -2.2 -0.3 99 0.0 CALM 0 0 - 0 - - 2.4
27/05:00pm -0.1 -2.1 -0.2 99 0.0 CALM 0 0 - 0 - - 2.4
27/04:30pm -0.1 -2.1 -0.2 99 0.0 CALM 0 0 - 0 - - 2.4
27/04:00pm -0.1 -2.1 -0.2 99 0.0 CALM 0 0 - 0 - - 2.4
27/03:30pm -0.2 -2.2 -0.3 99 0.0 CALM 0 0 - 0 - - 2.2
27/03:00pm -0.3 -2.3 -0.4 99 0.0 CALM 0 0 - 0 - - 2.2
27/02:30pm -0.3 -2.3 -0.4 99 0.0 CALM 0 0 - 0 - - 1.8
27/02:00pm -0.3 -2.3 -0.4 99 0.0 CALM 0 0 - 0 - - 0.8
27/01:30pm -0.3 -2.3 -0.4 99 0.0 CALM 0 0 - 0 - - 0.0
27/01:00pm -0.3 -2.3 -0.4 99 0.0 CALM 0 0 - 0 - - 0.0
27/12:30pm -0.4 -2.5 -0.5 99 0.0 CALM 0 0 - 0 - - 0.0
27/12:00pm -0.4 -2.5 -0.5 99 0.0 CALM 0 0 - 0 - - 0.0
27/11:30am -0.6 -2.7 -0.7 99 0.0 CALM 0 0 - 0 - - 0.0
27/11:00am -0.8 -2.9 -0.9 99 0.0 CALM 0 0 - 0 - - 0.0
27/10:30am -0.8 -5.8 -0.9 99 0.0 WSW 15 20 - 11 - - 0.0
27/10:00am -0.8 -5.4 -0.9 99 0.0 WSW 13 19 - 10 - - 0.0
27/09:30am -1.1 -6.1 -1.2 99 0.0 WSW 15 20 - 11 - - 0.0
27/09:00am -1.3 -6.3 -1.4 99 0.0 WSW 15 20 - 11 - - 18.0
27/08:30am -1.3 -5.9 -1.4 99 0.0 WSW 13 20 - 11 - - 18.0
27/08:00am -1.5 -6.6 -1.6 99 0.0 WSW 15 20 - 11 - - 18.0
27/07:30am -1.6 -7.0 -1.7 99 0.0 WSW 17 24 - 13 - - 18.0
27/07:00am -1.7 -7.2 -1.8 99 0.0 WSW 17 22 - 12 - - 18.0
27/06:30am -1.6 -7.0 -1.7 99 0.0 WSW 17 22 - 12 - - 18.0
27/06:00am -1.5 -6.6 -1.6 99 0.0 WSW 15 22 - 12 - - 18.0
27/05:30am -1.4 -5.7 -1.5 99 0.0 WSW 11 19 - 10 - - 18.0
27/05:00am -1.5 -6.2 -1.6 99 0.0 WSW 13 20 - 11 - - 18.0
27/04:30am -1.4 -6.1 -1.5 99 0.0 WSW 13 20 - 11 - - 18.0
27/04:00am -1.4 -6.1 -1.5 99 0.0 WSW 13 22 - 12 - - 18.0
27/03:30am -1.4 -6.8 -1.5 99 0.0 WSW 17 26 - 14 - - 18.0
27/03:00am -1.4 -6.8 -1.5 99 0.0 WSW 17 22 - 12 - - 17.6
27/02:30am -1.4 -6.8 -1.5 99 0.0 WSW 17 22 - 12 - - 17.6
27/02:00am -1.4 -7.2 -1.5 99 0.0 WSW 19 26 - 14 - - 17.6
27/01:30am -1.5 -7.3 -1.6 99 0.0 WSW 19 32 - 17 - - 17.6
27/01:00am -1.6 -7.4 -1.7 99 0.0 WSW 19 33 - 18 - - 17.6
27/12:30am -1.5 -7.3 -1.6 99 0.0 WSW 19 30 - 16 - - 17.4
27/12:00am -1.7 -7.5 -1.8 99 0.0 WSW 19 28 - 15 - - 17.2
 
Date/Time
EST
Temp
°C
App
Temp
°C
Dew
Point
°C
Rel
Hum
%
Delta-T
°C
Wind Press
QNH
hPa
Press
MSL
hPa
Rain since
9am
mm
Dir  Spd
km/h
Gust
km/h
Spd
kts
Gust
kts
26/11:30pm -1.7 -7.5 -1.8 99 0.0 WSW 19 26 - 14 - - 16.8
26/11:00pm -1.9 -7.8 -2.0 99 -0.1 WSW 19 28 - 15 - - 16.8
26/10:30pm -2.0 -7.5 -2.1 99 -0.1 WSW 17 24 - 13 - - 16.8
26/10:00pm -2.1 -8.2 -2.2 99 -0.1 WSW 20 32 - 17 - - 16.4
26/09:30pm -2.2 -8.1 -2.3 99 -0.1 WSW 19 30 - 16 - - 16.4
26/09:00pm -2.1 -8.0 -2.2 99 -0.1 WSW 19 28 - 15 - - 16.4
26/08:30pm -2.0 -7.1 -2.1 99 -0.1 WSW 15 28 - 15 - - 15.8
26/08:00pm -2.1 -7.6 -2.2 99 -0.1 WSW 17 26 - 14 - - 15.8
26/07:30pm -2.2 -8.3 -2.3 99 -0.1 WSW 20 35 - 19 - - 15.8
26/07:00pm -2.3 -8.4 -2.4 99 -0.1 WSW 20 28 - 15 - - 15.6
26/06:30pm -2.3 -8.8 -2.4 99 -0.1 WSW 22 35 - 19 - - 15.4
26/06:00pm -1.9 -8.0 -2.0 99 -0.1 WSW 20 35 - 19 - - 15.2
26/05:30pm -1.9 -7.8 -2.0 99 -0.1 WSW 19 35 - 19 - - 15.2
26/05:00pm -1.8 -8.2 -1.9 99 -0.1 WSW 22 35 - 19 - - 15.2
26/04:30pm -2.0 -8.8 -2.1 99 -0.1 WSW 24 33 - 18 - - 14.8
26/04:00pm -1.5 -8.6 -1.6 99 0.0 WSW 26 37 - 20 - - 14.4
26/03:30pm -1.4 -6.8 -1.5 99 0.0 WSW 17 32 - 17 - - 13.6
26/03:00pm -1.2 -7.5 -1.3 99 0.0 WSW 22 33 - 18 - - 13.0
26/02:30pm -1.4 -9.3 -1.5 99 0.0 WSW 30 44 - 24 - - 12.4
26/02:00pm -0.4 -6.6 -0.5 99 0.0 WSW 22 35 - 19 - - 12.2
26/01:30pm -0.9 -7.6 -1.0 99 0.0 WSW 24 46 - 25 - - 11.0
26/01:00pm -0.3 -7.3 -0.4 99 0.0 WSW 26 41 - 22 - - 10.2
26/12:30pm -0.5 -7.9 -0.6 99 0.0 WSW 28 43 - 23 - - 9.6
26/12:00pm -0.4 -8.2 -0.5 99 0.0 WSW 30 44 - 24 - - 9.4
26/11:32am -0.2 -7.9 -0.3 99 0.0 WSW 30 50 - 27 - - 8.0
26/11:30am -0.1 -7.4 -0.2 99 0.0 WSW 28 43 - 23 - - 8.0
26/11:03am -0.4 -7.8 -0.5 99 0.0 WSW 28 46 - 25 - - 6.4
26/11:00am -0.4 -7.8 -0.5 99 0.0 WSW 28 44 - 24 - - 6.2
26/10:30am -0.4 -7.4 -0.5 99 0.0 WSW 26 43 - 23 - - 4.6
26/10:00am -0.1 -7.4 -0.2 99 0.0 WSW 28 52 - 28 - - 3.0
26/09:49am -0.2 -7.5 -0.3 99 0.0 WSW 28 46 - 25 - - 2.4
26/09:30am -0.2 -7.2 -0.3 99 0.0 WSW 26 41 - 22 - - 1.4
26/09:03am -0.3 -7.7 -0.4 99 0.0 WSW 28 52 - 28 - - 0.0
26/09:00am -0.1 -6.7 -0.2 99 0.0 WSW 24 41 - 22 - - 29.2
26/08:50am -0.3 -7.7 -0.4 99 0.0 WSW 28 46 - 25 - - 28.6
26/08:30am -0.4 -7.0 -0.5 99 0.0 WSW 24 43 - 23 - - 27.8
26/08:00am -0.2 -7.5 -0.3 99 0.0 WSW 28 43 - 23 - - 26.4
26/07:39am -0.1 -7.4 -0.2 99 0.0 WSW 28 46 - 25 - - 25.6
26/07:30am -0.1 -8.2 -0.2 99 0.0 WSW 32 46 - 25 - - 25.0
26/07:00am -0.1 -8.4 -0.2 99 0.0 WSW 33 59 - 32 - - 23.8
26/06:30am -0.1 -7.4 -0.2 99 0.0 W 28 46 - 25 - - 22.6
26/06:19am -0.1 -7.4 -0.2 99 0.0 W 28 50 - 27 - - 22.2
26/06:00am 0.8 -4.7 0.7 99 0.0 W 19 30 - 16 - - 21.0
26/05:30am 1.7 -3.3 1.6 99 0.0 WNW 17 30 - 16 - - 19.8
26/05:00am 2.1 -2.8 2.0 99 0.0 WNW 17 28 - 15 - - 19.6
26/04:30am 1.9 -3.6 1.8 99 0.0 WSW 20 35 - 19 - - 19.6
26/04:00am 2.6 -3.5 2.5 99 0.0 W 24 39 - 21 - - 19.6
26/03:30am 3.2 -2.1 3.1 99 0.0 W 20 41 - 22 - - 19.6
26/03:00am 3.4 -1.8 3.3 99 0.0 WNW 20 39 - 21 - - 19.6
26/02:30am 3.3 -2.0 3.2 99 0.0 W 20 35 - 19 - - 19.6
26/02:00am 2.6 -2.2 2.5 99 0.0 WNW 17 32 - 17 - - 19.6
26/01:30am 2.6 -2.6 2.5 99 0.0 W 19 33 - 18 - - 19.6
26/01:00am 2.8 -2.6 2.7 99 0.0 W 20 33 - 18 - - 19.6
26/12:30am 3.2 -2.1 3.1 99 0.0 W 20 41 - 22 - - 19.4
26/12:00am 3.8 -1.8 3.7 99 0.0 W 22 39 - 21 - - 18.2
 
Date/Time
EST
Temp
°C
App
Temp
°C
Dew
Point
°C
Rel
Hum
%
Delta-T
°C
Wind Press
QNH
hPa
Press
MSL
hPa
Rain since
9am
mm
Dir  Spd
km/h
Gust
km/h
Spd
kts
Gust
kts
25/11:30pm 4.8 0.4 4.7 99 0.0 WNW 17 37 - 20 - - 16.6
25/11:00pm 4.5 0.4 4.4 99 0.0 NNW 15 30 - 16 - - 16.6
25/10:30pm 4.3 -0.2 4.2 99 0.0 NW 17 33 - 18 - - 16.6
25/10:00pm 3.9 -1.1 3.8 99 0.0 NW 19 33 - 18 - - 16.6
25/09:30pm 3.8 -1.4 3.7 99 0.0 WNW 20 35 - 19 - - 16.6
25/09:00pm 3.7 -1.3 3.6 99 0.0 WNW 19 35 - 19 - - 16.6
25/08:30pm 4.0 -0.9 3.9 99 0.0 WNW 19 28 - 15 - - 16.6
25/08:00pm 4.4 -0.1 4.3 99 0.0 WNW 17 33 - 18 - - 16.6
25/07:30pm 5.1 0.7 5.0 99 0.0 WNW 17 32 - 17 - - 16.6
25/07:00pm 5.3 1.0 5.2 99 0.0 W 17 28 - 15 - - 16.4
25/06:30pm 5.2 1.2 5.1 99 0.0 W 15 26 - 14 - - 16.4
25/06:00pm 5.0 1.0 4.9 99 0.0 W 15 24 - 13 - - 16.4
25/05:30pm 5.6 2.1 5.5 99 0.0 W 13 20 - 11 - - 16.4
25/05:00pm 5.7 0.9 5.6 99 0.0 W 20 46 - 25 - - 16.2
25/04:30pm 6.2 1.5 6.1 99 0.0 W 20 35 - 19 - - 15.2

Other Formats:

Comma delimited format used in spreadsheet applications
http://www.bom.gov.au/fwo/IDV60801/IDV60801.95901.axf

JavaScript Object Notation format (JSON) in row-major order
http://www.bom.gov.au/fwo/IDV60801/IDV60801.95901.json